createdAt,value
2018-05-21T00:01:47.661Z,6.97
2018-05-21T00:04:15.726Z,7.00
2018-05-21T00:06:43.902Z,7.60
2018-05-21T00:09:11.763Z,7.60
2018-05-21T00:11:39.939Z,7.47
2018-05-21T00:14:08.089Z,7.43
2018-05-21T00:16:36.079Z,6.63
2018-05-21T00:19:04.152Z,7.30
2018-05-21T00:21:32.602Z,6.90
2018-05-21T00:24:00.712Z,6.90
2018-05-21T00:26:28.536Z,6.87
2018-05-21T00:28:56.797Z,8.03
2018-05-21T00:31:24.711Z,7.43
2018-05-21T00:33:52.546Z,7.20
2018-05-21T00:36:20.854Z,6.87
2018-05-21T00:38:48.670Z,7.33
2018-05-21T00:41:16.484Z,7.60
2018-05-21T00:43:44.562Z,8.23
2018-05-21T00:46:12.458Z,7.70
2018-05-21T00:48:40.555Z,8.10
2018-05-21T00:51:08.879Z,7.90
2018-05-21T00:53:36.720Z,7.70
2018-05-21T00:56:04.607Z,8.17
2018-05-21T00:58:32.682Z,7.07
2018-05-21T01:01:00.747Z,7.60
2018-05-21T01:03:28.601Z,7.93
2018-05-21T01:05:56.997Z,7.93
2018-05-21T01:08:25.067Z,8.57
2018-05-21T01:10:52.934Z,7.67
2018-05-21T01:13:20.900Z,7.53
2018-05-21T01:15:49.084Z,7.67
2018-05-21T01:18:17.115Z,7.90
2018-05-21T01:20:45.554Z,7.83
2018-05-21T01:23:13.646Z,7.37
2018-05-21T01:25:41.460Z,7.40
2018-05-21T01:28:09.532Z,7.47
2018-05-21T01:30:38.221Z,7.87
2018-05-21T01:33:06.079Z,8.60
2018-05-21T01:35:34.154Z,7.77
2018-05-21T01:38:02.223Z,7.83
2018-05-21T01:40:30.248Z,7.83
2018-05-21T01:42:58.574Z,7.97
2018-05-21T01:45:26.437Z,7.50
2018-05-21T01:47:54.615Z,7.80
2018-05-21T01:50:22.893Z,7.50
2018-05-21T01:52:50.756Z,7.83
2018-05-21T01:55:18.724Z,6.73
2018-05-21T01:57:46.793Z,7.37
2018-05-21T02:00:14.558Z,7.60
2018-05-21T02:02:42.633Z,7.67
2018-05-21T02:05:11.219Z,8.00
2018-05-21T02:07:39.185Z,7.90
2018-05-21T02:10:07.369Z,9.20
2018-05-21T02:12:35.866Z,8.10
2018-05-21T02:15:03.812Z,7.27
2018-05-21T02:17:31.680Z,7.70
2018-05-21T02:20:00.379Z,6.73
2018-05-21T02:22:28.233Z,7.27
2018-05-21T02:24:56.089Z,7.40
2018-05-21T02:27:24.300Z,7.03
2018-05-21T02:29:52.136Z,6.90
2018-05-21T02:32:19.945Z,6.97
2018-05-21T02:34:48.225Z,6.63
2018-05-21T02:37:16.041Z,6.60
2018-05-21T02:39:43.800Z,5.83
2018-05-21T02:42:12.433Z,5.77
2018-05-21T02:44:40.479Z,5.63
2018-05-21T02:47:08.330Z,5.17
2018-05-21T02:49:36.471Z,5.50
2018-05-21T02:52:10.658Z,5.43
2018-05-21T02:54:38.699Z,5.50
2018-05-21T02:57:06.725Z,5.30
2018-05-21T02:59:34.617Z,4.90
2018-05-21T03:02:02.675Z,4.77
2018-05-21T03:04:30.768Z,4.90
2018-05-21T03:06:58.658Z,5.13
2018-05-21T03:09:26.834Z,4.30
2018-05-21T03:11:54.898Z,4.70
2018-05-21T03:14:22.735Z,4.43
2018-05-21T03:16:50.660Z,3.90
2018-05-21T03:19:18.718Z,4.70
2018-05-21T03:21:46.643Z,4.67
2018-05-21T03:24:14.916Z,4.47
2018-05-21T03:26:44.015Z,3.97
2018-05-21T03:29:11.881Z,4.50
2018-05-21T03:31:40.257Z,4.37
2018-05-21T03:34:08.326Z,4.37
2018-05-21T03:36:36.187Z,4.40
2018-05-21T03:39:04.298Z,4.50
2018-05-21T03:41:32.444Z,4.23
2018-05-21T03:44:00.407Z,4.27
2018-05-21T03:46:28.535Z,4.23
2018-05-21T03:48:56.552Z,4.10
2018-05-21T03:51:24.414Z,4.00
2018-05-21T03:53:52.788Z,4.10
2018-05-21T03:56:20.996Z,4.10
2018-05-21T03:59:01.232Z,3.80
2018-05-21T04:01:40.970Z,4.27
2018-05-21T04:04:09.349Z,4.03
2018-05-21T04:06:37.214Z,4.20
2018-05-21T04:09:05.698Z,3.73
2018-05-21T04:11:33.886Z,3.67
2018-05-21T04:14:01.707Z,3.60
2018-05-21T04:16:30.424Z,3.37
2018-05-21T04:18:58.747Z,3.67
2018-05-21T04:21:26.624Z,3.30
2018-05-21T04:23:54.430Z,3.30
2018-05-21T04:26:22.808Z,3.17
2018-05-21T04:28:50.680Z,3.20
2018-05-21T04:31:18.547Z,3.17
2018-05-21T04:33:46.736Z,2.77
2018-05-21T04:36:14.587Z,4.53
2018-05-21T04:38:42.455Z,3.27
2018-05-21T04:41:10.657Z,3.10
2018-05-21T04:43:38.798Z,3.00
2018-05-21T04:46:06.530Z,3.03
2018-05-21T04:48:34.997Z,2.73
2018-05-21T04:51:03.011Z,3.50
2018-05-21T04:53:30.881Z,3.10
2018-05-21T04:55:59.958Z,2.53
2018-05-21T04:58:27.664Z,2.77
2018-05-21T05:00:55.498Z,2.90
2018-05-21T05:03:24.135Z,2.83
2018-05-21T05:05:51.996Z,2.73
2018-05-21T05:08:19.924Z,2.90
2018-05-21T05:10:48.320Z,2.80
2018-05-21T05:13:16.617Z,2.87
2018-05-21T05:15:44.446Z,2.83
2018-05-21T05:18:12.561Z,3.03
2018-05-21T05:20:40.476Z,2.80
2018-05-21T05:23:08.337Z,2.53
2018-05-21T05:25:36.653Z,2.77
2018-05-21T05:28:04.394Z,3.00
2018-05-21T05:30:32.256Z,2.73
2018-05-21T05:33:00.443Z,3.27
2018-05-21T05:35:28.819Z,2.70
2018-05-21T05:37:56.685Z,2.97
2018-05-21T05:40:24.945Z,2.80
2018-05-21T05:42:52.964Z,2.87
2018-05-21T05:45:20.654Z,3.53
2018-05-21T05:47:49.364Z,3.27
2018-05-21T05:50:17.639Z,2.73
2018-05-21T05:52:45.605Z,2.87
2018-05-21T05:55:13.783Z,3.07
2018-05-21T05:57:42.263Z,2.70
2018-05-21T06:00:10.130Z,2.90
2018-05-21T06:02:38.104Z,2.57
2018-05-21T06:05:06.167Z,4.20
2018-05-21T06:07:34.037Z,3.20
2018-05-21T06:10:02.077Z,3.07
2018-05-21T06:12:30.114Z,3.00
2018-05-21T06:14:57.940Z,3.90
2018-05-21T06:17:25.955Z,2.73
2018-05-21T06:19:54.088Z,3.17
2018-05-21T06:22:22.158Z,2.70
2018-05-21T06:24:50.535Z,3.13
2018-05-21T06:27:18.248Z,2.87
2018-05-21T06:29:46.298Z,3.07
2018-05-21T06:32:15.098Z,3.00
2018-05-21T06:34:42.934Z,3.03
2018-05-21T06:37:11.630Z,3.10
2018-05-21T06:39:39.516Z,2.70
2018-05-21T06:42:07.256Z,2.83
2018-05-21T06:44:35.340Z,2.90
2018-05-21T06:47:03.405Z,2.83
2018-05-21T06:49:31.349Z,3.33
2018-05-21T06:51:59.564Z,3.10
2018-05-21T06:54:28.063Z,2.90
2018-05-21T06:56:55.868Z,2.63
2018-05-21T06:59:23.939Z,2.93
2018-05-21T07:01:52.358Z,3.10
2018-05-21T07:04:20.186Z,2.50
2018-05-21T07:06:48.180Z,4.10
2018-05-21T07:09:16.421Z,3.00
2018-05-21T07:11:44.710Z,3.20
2018-05-21T07:14:12.501Z,3.10
2018-05-21T07:16:41.162Z,2.97
2018-05-21T07:19:09.261Z,2.70
2018-05-21T07:21:37.064Z,3.13
2018-05-21T07:24:05.169Z,2.90
2018-05-21T07:26:33.543Z,2.80
2018-05-21T07:29:01.507Z,2.70
2018-05-21T07:31:29.787Z,2.70
2018-05-21T07:33:57.866Z,3.07
2018-05-21T07:36:25.824Z,3.07
2018-05-21T07:38:53.990Z,2.67
2018-05-21T07:41:21.823Z,2.30
2018-05-21T07:43:50.348Z,3.50
2018-05-21T07:46:18.523Z,3.33
2018-05-21T07:48:46.341Z,3.00
2018-05-21T07:51:14.858Z,2.53
2018-05-21T07:53:43.377Z,2.33
2018-05-21T07:56:11.628Z,2.90
2018-05-21T07:58:40.002Z,3.30
2018-05-21T08:01:08.590Z,2.77
2018-05-21T08:03:36.628Z,2.37
2018-05-21T08:06:04.727Z,2.37
2018-05-21T08:08:32.949Z,2.30
2018-05-21T08:11:00.990Z,2.07
2018-05-21T08:13:28.960Z,2.00
2018-05-21T08:15:57.630Z,2.43
2018-05-21T08:18:25.595Z,2.20
2018-05-21T08:20:53.369Z,2.43
2018-05-21T08:23:21.748Z,2.50
2018-05-21T08:25:49.445Z,3.20
2018-05-21T08:28:17.158Z,6.10
2018-05-21T08:30:45.790Z,2.53
2018-05-21T08:33:13.535Z,2.00
2018-05-21T08:35:41.381Z,2.83
2018-05-21T08:38:09.642Z,1.90
2018-05-21T08:40:37.419Z,1.90
2018-05-21T08:43:05.282Z,2.67
2018-05-21T08:45:33.594Z,1.60
2018-05-21T08:48:01.516Z,1.80
2018-05-21T08:50:29.395Z,1.80
2018-05-21T08:52:57.671Z,1.63
2018-05-21T08:55:25.912Z,1.67
2018-05-21T08:57:53.742Z,1.60
2018-05-21T09:00:22.403Z,1.60
2018-05-21T09:02:51.163Z,1.43
2018-05-21T09:05:19.032Z,1.57
2018-05-21T09:07:46.985Z,1.60
2018-05-21T09:10:14.981Z,1.63
2018-05-21T09:12:42.904Z,1.50
2018-05-21T09:15:10.883Z,1.77
2018-05-21T09:17:39.104Z,1.50
2018-05-21T09:20:07.360Z,1.70
2018-05-21T09:22:35.425Z,1.90
2018-05-21T09:25:03.289Z,1.30
2018-05-21T09:27:31.411Z,1.30
2018-05-21T09:29:59.294Z,1.23
2018-05-21T09:32:27.180Z,1.67
2018-05-21T09:34:55.189Z,1.77
2018-05-21T09:37:23.321Z,1.47
2018-05-21T09:39:51.027Z,1.50
2018-05-21T09:42:18.993Z,1.53
2018-05-21T09:44:46.882Z,1.97
2018-05-21T09:47:15.039Z,2.00
2018-05-21T09:49:43.057Z,1.20
2018-05-21T09:52:11.106Z,1.50
2018-05-21T09:54:38.831Z,1.40
2018-05-21T09:57:07.200Z,1.50
2018-05-21T09:59:35.287Z,1.10
2018-05-21T10:02:03.067Z,2.20
2018-05-21T10:04:31.976Z,1.60
2018-05-21T10:07:00.010Z,1.27
2018-05-21T10:09:27.889Z,1.80
2018-05-21T10:11:56.187Z,1.43
2018-05-21T10:14:24.259Z,1.93
2018-05-21T10:16:52.200Z,1.13
2018-05-21T10:19:20.311Z,1.57
2018-05-21T10:21:48.538Z,1.60
2018-05-21T10:24:16.727Z,1.10
2018-05-21T10:26:44.475Z,1.20
2018-05-21T10:29:12.418Z,1.20
2018-05-21T10:31:40.613Z,1.30
2018-05-21T10:34:08.334Z,1.30
2018-05-21T10:36:36.435Z,1.20
2018-05-21T10:39:04.681Z,1.20
2018-05-21T10:41:32.772Z,1.10
2018-05-21T10:44:00.692Z,1.30
2018-05-21T10:46:28.407Z,1.20
2018-05-21T10:48:56.430Z,1.03
2018-05-21T10:51:24.556Z,1.23
2018-05-21T10:53:52.270Z,0.83
2018-05-21T10:56:20.453Z,0.90
2018-05-21T10:58:48.325Z,1.00
2018-05-21T11:01:16.148Z,1.27
2018-05-21T11:03:44.219Z,0.90
2018-05-21T11:06:12.409Z,1.10
2018-05-21T11:08:40.146Z,1.00
2018-05-21T11:11:07.988Z,1.40
2018-05-21T11:13:36.239Z,4.37
2018-05-21T11:16:04.161Z,1.60
2018-05-21T11:18:31.916Z,1.40
2018-05-21T11:21:00.460Z,1.70
2018-05-21T11:23:28.163Z,1.40
2018-05-21T11:25:55.899Z,1.40
2018-05-21T11:28:24.155Z,1.53
2018-05-21T11:30:51.955Z,1.50
2018-05-21T11:33:19.789Z,1.53
2018-05-21T11:35:48.384Z,1.23
2018-05-21T11:38:16.247Z,1.70
2018-05-21T11:40:44.018Z,1.17
2018-05-21T11:43:12.116Z,1.40
2018-05-21T11:45:39.857Z,1.20
2018-05-21T11:48:07.633Z,1.00
2018-05-21T11:50:35.896Z,1.40
2018-05-21T11:53:04.004Z,1.30
2018-05-21T11:55:31.752Z,1.20
2018-05-21T11:58:00.040Z,0.93
2018-05-21T12:00:28.187Z,1.20
2018-05-21T12:02:55.923Z,1.50
2018-05-21T12:05:23.727Z,1.40
2018-05-21T12:07:51.955Z,1.77
2018-05-21T12:10:19.885Z,1.30
2018-05-21T12:12:47.787Z,1.30
2018-05-21T12:15:15.695Z,1.27
2018-05-21T12:17:43.654Z,1.10
2018-05-21T12:20:11.590Z,1.20
2018-05-21T12:22:39.674Z,1.30
2018-05-21T12:25:07.524Z,1.07
2018-05-21T12:27:36.794Z,1.40
2018-05-21T12:30:05.787Z,1.20
2018-05-21T12:32:33.897Z,1.60
2018-05-21T12:35:01.629Z,1.30
2018-05-21T12:37:30.035Z,1.40
2018-05-21T12:39:58.158Z,1.20
2018-05-21T12:42:25.850Z,1.33
2018-05-21T12:44:53.685Z,1.20
2018-05-21T12:47:21.859Z,1.40
2018-05-21T12:49:49.753Z,1.40
2018-05-21T12:52:17.911Z,1.60
2018-05-21T12:54:46.108Z,1.40
2018-05-21T12:57:13.952Z,1.00
2018-05-21T12:59:42.228Z,1.27
2018-05-21T13:02:10.229Z,1.10
2018-05-21T13:04:37.966Z,1.30
2018-05-21T13:07:06.105Z,1.30
2018-05-21T13:09:34.659Z,1.10
2018-05-21T13:12:02.486Z,1.40
2018-05-21T13:14:30.410Z,1.30
2018-05-21T13:16:58.523Z,1.33
2018-05-21T13:19:26.254Z,1.50
2018-05-21T13:21:54.358Z,1.43
2018-05-21T13:24:22.845Z,1.90
2018-05-21T13:26:50.806Z,1.50
2018-05-21T13:29:18.734Z,1.60
2018-05-21T13:31:46.843Z,1.30
2018-05-21T13:34:14.641Z,1.70
2018-05-21T13:36:42.680Z,1.73
2018-05-21T13:39:10.653Z,1.40
2018-05-21T13:41:38.363Z,2.37
2018-05-21T13:44:06.772Z,1.27
2018-05-21T13:46:35.091Z,1.10
2018-05-21T13:49:02.957Z,1.30
2018-05-21T13:51:31.471Z,1.30
2018-05-21T13:53:59.204Z,1.00
2018-05-21T13:56:27.148Z,1.50
2018-05-21T13:58:55.494Z,1.20
2018-05-21T14:01:23.283Z,1.10
2018-05-21T14:03:50.980Z,1.00
2018-05-21T14:06:19.284Z,1.43
2018-05-21T14:08:47.037Z,1.20
2018-05-21T14:11:15.081Z,1.33
2018-05-21T14:13:43.245Z,1.27
2018-05-21T14:16:11.102Z,1.20
2018-05-21T14:18:38.969Z,1.23
2018-05-21T14:21:07.352Z,1.03
2018-05-21T14:23:35.215Z,1.20
2018-05-21T14:26:02.980Z,1.30
2018-05-21T14:28:31.385Z,1.23
2018-05-21T14:31:00.708Z,1.40
2018-05-21T14:33:28.539Z,1.40
2018-05-21T14:35:56.781Z,0.90
2018-05-21T14:38:24.507Z,1.17
2018-05-21T14:40:52.639Z,1.20
2018-05-21T14:43:21.040Z,1.10
2018-05-21T14:45:48.808Z,1.23
2018-05-21T14:48:17.044Z,1.20
2018-05-21T14:50:45.728Z,1.20
2018-05-21T14:53:13.625Z,0.80
2018-05-21T14:55:41.444Z,0.90
2018-05-21T14:58:09.545Z,1.00
2018-05-21T15:00:37.623Z,1.30
2018-05-21T15:03:05.600Z,1.10
2018-05-21T15:05:33.706Z,1.30
2018-05-21T15:08:01.664Z,1.00
2018-05-21T15:10:29.709Z,1.10
2018-05-21T15:12:58.281Z,1.03
2018-05-21T15:15:26.463Z,2.00
2018-05-21T15:17:54.319Z,3.30
2018-05-21T15:20:22.492Z,1.30
2018-05-21T15:22:50.770Z,1.13
2018-05-21T15:25:19.036Z,1.40
2018-05-21T15:27:47.294Z,1.30
2018-05-21T15:30:15.027Z,1.27
2018-05-21T15:32:43.074Z,1.20
2018-05-21T15:35:11.130Z,1.27
2018-05-21T15:37:38.967Z,1.17
2018-05-21T15:40:07.022Z,1.20
2018-05-21T15:42:35.194Z,1.20
2018-05-21T15:45:03.891Z,1.57
2018-05-21T15:47:31.906Z,1.13
2018-05-21T15:50:00.069Z,1.30
2018-05-21T15:52:27.862Z,1.40
2018-05-21T15:54:55.950Z,1.30
2018-05-21T15:57:24.178Z,1.20
2018-05-21T15:59:52.045Z,1.50
2018-05-21T16:02:20.330Z,1.30
2018-05-21T16:04:48.625Z,1.13
2018-05-21T16:07:16.469Z,1.20
2018-05-21T16:09:44.962Z,1.37
2018-05-21T16:12:13.184Z,1.30
2018-05-21T16:14:41.185Z,0.90
2018-05-21T16:17:09.275Z,1.70
2018-05-21T16:19:37.739Z,1.30
2018-05-21T16:22:05.808Z,1.50
2018-05-21T16:24:33.981Z,1.70
2018-05-21T16:27:02.956Z,1.60
2018-05-21T16:29:30.941Z,1.73
2018-05-21T16:31:59.119Z,1.97
2018-05-21T16:34:27.079Z,1.97
2018-05-21T16:36:55.092Z,1.47
2018-05-21T16:39:23.343Z,1.40
2018-05-21T16:41:51.656Z,1.70
2018-05-21T16:44:19.540Z,1.40
2018-05-21T16:46:52.924Z,1.47
2018-05-21T16:49:21.394Z,1.70
2018-05-21T16:51:49.283Z,1.53
2018-05-21T16:54:17.491Z,1.47
2018-05-21T16:56:45.663Z,1.20
2018-05-21T16:59:13.646Z,1.50
2018-05-21T17:01:44.266Z,1.20
2018-05-21T17:04:12.146Z,1.50
2018-05-21T17:06:39.940Z,2.10
2018-05-21T17:09:08.353Z,1.63
2018-05-21T17:11:36.241Z,2.20
2018-05-21T17:14:04.186Z,1.97
2018-05-21T17:16:32.648Z,1.70
2018-05-21T17:19:00.663Z,1.47
2018-05-21T17:21:28.390Z,1.27
2018-05-21T17:23:56.822Z,1.60
2018-05-21T17:26:24.901Z,1.20
2018-05-21T17:28:52.639Z,1.60
2018-05-21T17:31:20.757Z,1.20
2018-05-21T17:33:48.892Z,1.43
2018-05-21T17:36:16.892Z,1.30
2018-05-21T17:38:44.854Z,1.90
2018-05-21T17:41:13.054Z,1.40
2018-05-21T17:43:40.969Z,1.40
2018-05-21T17:46:08.814Z,1.30
2018-05-21T17:48:37.006Z,1.37
2018-05-21T17:51:05.124Z,2.60
2018-05-21T17:53:33.256Z,1.27
2018-05-21T17:56:01.280Z,1.40
2018-05-21T17:58:29.163Z,1.30
2018-05-21T18:00:57.126Z,1.40
2018-05-21T18:03:25.121Z,1.20
2018-05-21T18:05:52.942Z,1.47
2018-05-21T18:08:21.992Z,1.40
2018-05-21T18:10:50.057Z,1.50
2018-05-21T18:13:17.932Z,1.40
2018-05-21T18:15:45.989Z,1.40
2018-05-21T18:18:14.123Z,1.67
2018-05-21T18:20:42.279Z,1.33
2018-05-21T18:23:10.457Z,1.57
2018-05-21T18:25:38.658Z,1.80
2018-05-21T18:28:06.560Z,1.73
2018-05-21T18:30:34.623Z,1.70
2018-05-21T18:33:02.803Z,1.97
2018-05-21T18:35:30.617Z,1.80
2018-05-21T18:37:58.627Z,1.87
2018-05-21T18:40:26.519Z,1.77
2018-05-21T18:42:54.284Z,2.27
2018-05-21T18:45:23.046Z,1.93
2018-05-21T18:47:51.260Z,1.40
2018-05-21T18:50:18.996Z,1.40
2018-05-21T18:52:47.058Z,1.70
2018-05-21T18:55:15.151Z,1.83
2018-05-21T18:57:43.045Z,1.70
2018-05-21T19:00:11.286Z,2.17
2018-05-21T19:02:39.545Z,2.50
2018-05-21T19:05:07.825Z,2.73
2018-05-21T19:07:35.997Z,2.83
2018-05-21T19:10:04.067Z,2.20
2018-05-21T19:12:31.912Z,2.40
2018-05-21T19:15:00.212Z,3.20
2018-05-21T19:17:28.280Z,3.23
2018-05-21T19:19:56.556Z,3.00
2018-05-21T19:22:24.701Z,4.17
2018-05-21T19:24:52.521Z,3.10
2018-05-21T19:27:20.260Z,2.43
2018-05-21T19:29:49.259Z,2.40
2018-05-21T19:32:17.391Z,2.20
2018-05-21T19:34:45.258Z,1.60
2018-05-21T19:37:13.375Z,2.20
2018-05-21T19:39:41.439Z,1.90
2018-05-21T19:42:09.306Z,1.40
2018-05-21T19:44:37.375Z,1.60
2018-05-21T19:47:05.544Z,1.67
2018-05-21T19:49:34.458Z,2.10
2018-05-21T19:52:02.554Z,2.23
2018-05-21T19:58:01.323Z,2.27
2018-05-21T20:00:29.696Z,1.70
2018-05-21T20:02:57.874Z,2.10
2018-05-21T20:05:26.045Z,2.10
2018-05-21T20:07:54.194Z,2.00
2018-05-21T20:10:23.019Z,1.90
2018-05-21T20:12:50.942Z,1.90
2018-05-21T20:15:19.055Z,1.93
2018-05-21T20:17:46.910Z,2.50
2018-05-21T20:20:15.192Z,1.90
2018-05-21T20:22:43.479Z,2.13
2018-05-21T20:25:11.361Z,13.13
2018-05-21T20:27:39.617Z,2.10
2018-05-21T20:30:07.619Z,2.10
2018-05-21T20:32:35.503Z,2.07
2018-05-21T20:35:03.614Z,1.90
2018-05-21T20:37:32.101Z,1.90
2018-05-21T20:40:00.088Z,1.83
2018-05-21T20:42:28.346Z,2.03
2018-05-21T20:44:56.594Z,2.40
2018-05-21T20:47:24.480Z,2.17
2018-05-21T20:49:52.861Z,2.13
2018-05-21T20:52:21.235Z,2.20
2018-05-21T20:54:50.129Z,2.13
2018-05-21T20:57:18.301Z,2.23
2018-05-21T20:59:46.254Z,2.07
2018-05-21T21:02:14.379Z,2.07
2018-05-21T21:04:42.458Z,2.67
2018-05-21T21:07:10.277Z,2.23
2018-05-21T21:09:38.657Z,2.73
2018-05-21T21:12:06.831Z,2.40
2018-05-21T21:14:34.801Z,2.40
2018-05-21T21:17:03.115Z,2.57
2018-05-21T21:19:31.459Z,2.60
2018-05-21T21:21:59.731Z,2.37
2018-05-21T21:24:27.903Z,2.70
2018-05-21T21:26:56.180Z,2.50
2018-05-21T21:29:24.048Z,2.30
2018-05-21T21:31:52.148Z,3.03
2018-05-21T21:34:20.431Z,2.50
2018-05-21T21:36:48.260Z,2.33
2018-05-21T21:39:16.126Z,2.30
2018-05-21T21:41:44.425Z,2.23
2018-05-21T21:44:12.218Z,2.10
2018-05-21T21:46:40.237Z,2.40
2018-05-21T21:49:08.821Z,2.17
2018-05-21T21:51:37.021Z,2.17
2018-05-21T21:54:04.867Z,2.03
2018-05-21T21:56:33.244Z,2.20
2018-05-21T21:59:01.230Z,2.10
2018-05-21T22:01:29.178Z,2.03
2018-05-21T22:03:57.503Z,2.17
2018-05-21T22:06:25.321Z,2.00
2018-05-21T22:08:53.198Z,2.13
2018-05-21T22:11:21.687Z,2.00
2018-05-21T22:13:49.410Z,2.00
2018-05-21T22:16:17.197Z,2.23
2018-05-21T22:18:45.334Z,2.10
2018-05-21T22:21:13.142Z,2.40
2018-05-21T22:23:41.204Z,2.30
2018-05-21T22:26:09.793Z,2.93
2018-05-21T22:28:37.550Z,2.70
2018-05-21T22:31:05.422Z,2.57
2018-05-21T22:33:33.807Z,2.97
2018-05-21T22:36:01.635Z,2.20
2018-05-21T22:38:29.534Z,2.47
2018-05-21T22:40:58.322Z,2.50
2018-05-21T22:43:26.159Z,2.60
2018-05-21T22:45:54.048Z,2.70
2018-05-21T22:48:22.257Z,3.00
2018-05-21T22:50:50.148Z,3.10
2018-05-21T22:53:17.976Z,4.40
2018-05-21T22:55:46.471Z,3.40
2018-05-21T22:58:14.277Z,3.10
2018-05-21T23:00:42.372Z,3.10
2018-05-21T23:03:10.731Z,2.70
2018-05-21T23:05:38.515Z,2.80
2018-05-21T23:08:06.381Z,3.07
2018-05-21T23:10:34.657Z,2.60
2018-05-21T23:13:02.456Z,2.23
2018-05-21T23:15:30.494Z,2.80
2018-05-21T23:17:59.002Z,2.90
2018-05-21T23:20:26.941Z,2.53
2018-05-21T23:22:55.219Z,3.50
2018-05-21T23:25:23.702Z,3.23
2018-05-21T23:27:51.545Z,2.60
2018-05-21T23:30:19.534Z,2.60
2018-05-21T23:32:47.765Z,2.67
2018-05-21T23:35:15.675Z,2.27
2018-05-21T23:37:43.647Z,2.33
2018-05-21T23:40:12.013Z,2.33
2018-05-21T23:42:39.814Z,2.10
2018-05-21T23:45:08.004Z,2.30
2018-05-21T23:47:36.033Z,2.33
2018-05-21T23:50:03.902Z,2.40
2018-05-21T23:52:31.975Z,2.57
2018-05-21T23:55:00.246Z,2.70
2018-05-21T23:57:28.178Z,2.80
2018-05-21T23:59:56.087Z,3.40
